createdAt,value
2018-05-21T00:00:52.630Z,1013.89
2018-05-21T00:02:01.812Z,1013.85
2018-05-21T00:03:11.562Z,1013.84
2018-05-21T00:04:20.747Z,1013.81
2018-05-21T00:05:30.504Z,1013.81
2018-05-21T00:06:40.210Z,1013.8
2018-05-21T00:07:49.151Z,1013.83
2018-05-21T00:08:58.580Z,1013.8
2018-05-21T00:10:08.259Z,1013.8
2018-05-21T00:11:18.276Z,1013.77
2018-05-21T00:12:27.203Z,1013.84
2018-05-21T00:13:36.421Z,1013.76
2018-05-21T00:14:45.343Z,1013.78
2018-05-21T00:15:54.538Z,1013.78
2018-05-21T00:17:04.047Z,1013.73
2018-05-21T00:18:13.499Z,1013.76
2018-05-21T00:19:23.182Z,1013.74
2018-05-21T00:20:32.396Z,1013.73
2018-05-21T00:21:41.819Z,1013.73
2018-05-21T00:22:51.514Z,1013.77
2018-05-21T00:24:00.685Z,1013.74
2018-05-21T00:25:10.389Z,1013.74
2018-05-21T00:26:19.824Z,1013.73
2018-05-21T00:27:28.995Z,1013.73
2018-05-21T00:28:38.699Z,1013.67
2018-05-21T00:29:48.391Z,1013.66
2018-05-21T00:30:58.358Z,1013.66
2018-05-21T00:32:07.804Z,1013.64
2018-05-21T00:33:17.051Z,1013.63
2018-05-21T00:34:26.512Z,1013.62
2018-05-21T00:35:36.181Z,1013.62
2018-05-21T00:36:45.877Z,1013.63
2018-05-21T00:37:55.073Z,1013.61
2018-05-21T00:39:04.508Z,1013.64
2018-05-21T00:40:13.964Z,1013.62
2018-05-21T00:41:24.157Z,1013.6
2018-05-21T00:42:33.321Z,1013.58
2018-05-21T00:43:43.008Z,1013.58
2018-05-21T00:44:52.453Z,1013.51
2018-05-21T00:46:01.902Z,1013.55
2018-05-21T00:47:11.600Z,1013.51
2018-05-21T00:48:20.763Z,1013.47
2018-05-21T00:49:29.697Z,1013.45
2018-05-21T00:50:38.867Z,1013.41
2018-05-21T00:51:48.268Z,1013.46
2018-05-21T00:52:57.204Z,1013.43
2018-05-21T00:54:06.629Z,1013.43
2018-05-21T00:55:15.775Z,1013.49
2018-05-21T00:56:25.493Z,1013.43
2018-05-21T00:57:35.465Z,1013.43
2018-05-21T00:58:45.173Z,1013.42
2018-05-21T00:59:53.842Z,1013.43
2018-05-21T01:01:03.543Z,1013.42
2018-05-21T01:02:12.750Z,1013.4
2018-05-21T01:03:22.210Z,1013.35
2018-05-21T01:04:31.635Z,1013.32
2018-05-21T01:05:40.792Z,1013.36
2018-05-21T01:06:50.507Z,1013.38
2018-05-21T01:07:59.935Z,1013.31
2018-05-21T01:09:09.361Z,1013.34
2018-05-21T01:10:19.039Z,1013.33
2018-05-21T01:11:28.737Z,1013.31
2018-05-21T01:12:38.148Z,1013.32
2018-05-21T01:13:47.818Z,1013.34
2018-05-21T01:14:57.245Z,1013.32
2018-05-21T01:16:06.137Z,1013.33
2018-05-21T01:17:15.857Z,1013.31
2018-05-21T01:18:25.609Z,1013.37
2018-05-21T01:19:35.298Z,1013.35
2018-05-21T01:20:44.992Z,1013.36
2018-05-21T01:21:54.731Z,1013.33
2018-05-21T01:23:04.167Z,1013.31
2018-05-21T01:24:13.591Z,1013.34
2018-05-21T01:25:23.011Z,1013.34
2018-05-21T01:26:32.441Z,1013.31
2018-05-21T01:27:41.876Z,1013.34
2018-05-21T01:28:51.322Z,1013.32
2018-05-21T01:29:59.974Z,1013.32
2018-05-21T01:31:09.413Z,1013.34
2018-05-21T01:32:18.864Z,1013.31
2018-05-21T01:33:28.305Z,1013.27
2018-05-21T01:34:37.759Z,1013.29
2018-05-21T01:35:47.208Z,1013.25
2018-05-21T01:36:56.655Z,1013.28
2018-05-21T01:38:05.823Z,1013.27
2018-05-21T01:39:15.286Z,1013.28
2018-05-21T01:40:24.457Z,1013.28
2018-05-21T01:41:33.664Z,1013.25
2018-05-21T01:42:43.421Z,1013.25
2018-05-21T01:43:53.123Z,1013.23
2018-05-21T01:45:02.037Z,1013.29
2018-05-21T01:46:11.224Z,1013.26
2018-05-21T01:47:20.666Z,1013.26
2018-05-21T01:48:30.114Z,1013.26
2018-05-21T01:49:39.301Z,1013.27
2018-05-21T01:50:49.091Z,1013.27
2018-05-21T01:51:58.619Z,1013.25
2018-05-21T01:53:08.161Z,1013.22
2018-05-21T01:54:17.577Z,1013.23
2018-05-21T01:55:27.275Z,1013.17
2018-05-21T01:56:36.960Z,1013.18
2018-05-21T01:57:46.156Z,1013.16
2018-05-21T01:58:55.628Z,1013.16
2018-05-21T02:00:05.096Z,1013.15
2018-05-21T02:01:14.802Z,1013.12
2018-05-21T02:02:24.506Z,1013.18
2018-05-21T02:03:33.455Z,1013.15
2018-05-21T02:04:42.903Z,1013.12
2018-05-21T02:05:52.130Z,1013.11
2018-05-21T02:07:01.304Z,1013.09
2018-05-21T02:08:10.783Z,1013.11
2018-05-21T02:09:20.695Z,1013.08
2018-05-21T02:10:29.886Z,1013.09
2018-05-21T02:11:39.610Z,1013.07
2018-05-21T02:12:48.799Z,1013.06
2018-05-21T02:13:58.509Z,1013.04
2018-05-21T02:15:07.779Z,1013.02
2018-05-21T02:16:16.982Z,1013.03
2018-05-21T02:17:26.159Z,1013.02
2018-05-21T02:18:35.560Z,1013.03
2018-05-21T02:19:45.011Z,1013.01
2018-05-21T02:20:54.786Z,1012.99
2018-05-21T02:22:04.758Z,1013.01
2018-05-21T02:23:14.750Z,1013.01
2018-05-21T02:24:24.205Z,1012.97
2018-05-21T02:25:33.360Z,1012.98
2018-05-21T02:26:42.592Z,1012.97
2018-05-21T02:27:52.079Z,1013
2018-05-21T02:29:01.509Z,1013
2018-05-21T02:30:11.219Z,1013
2018-05-21T02:31:20.668Z,1013.05
2018-05-21T02:32:29.912Z,1013.03
2018-05-21T02:33:39.344Z,1013
2018-05-21T02:34:48.778Z,1012.97
2018-05-21T02:35:58.251Z,1013.02
2018-05-21T02:37:07.708Z,1012.99
2018-05-21T02:38:17.135Z,1012.99
2018-05-21T02:39:26.537Z,1013
2018-05-21T02:40:35.983Z,1012.97
2018-05-21T02:41:45.929Z,1012.98
2018-05-21T02:42:55.384Z,1012.98
2018-05-21T02:44:04.576Z,1012.99
2018-05-21T02:45:13.776Z,1012.98
2018-05-21T02:46:23.505Z,1012.97
2018-05-21T02:47:33.196Z,1012.96
2018-05-21T02:48:42.401Z,1012.94
2018-05-21T02:49:51.820Z,1012.96
2018-05-21T02:51:00.742Z,1012.9
2018-05-21T02:52:10.167Z,1012.94
2018-05-21T02:53:19.674Z,1012.89
2018-05-21T02:54:30.045Z,1012.89
2018-05-21T02:55:39.754Z,1012.87
2018-05-21T02:56:48.901Z,1012.82
2018-05-21T02:57:58.868Z,1012.81
2018-05-21T02:59:08.043Z,1012.8
2018-05-21T03:00:17.754Z,1012.8
2018-05-21T03:01:27.205Z,1012.82
2018-05-21T03:02:36.401Z,1012.81
2018-05-21T03:03:45.057Z,1012.79
2018-05-21T03:04:54.792Z,1012.8
2018-05-21T03:06:04.000Z,1012.8
2018-05-21T03:07:13.693Z,1012.83
2018-05-21T03:08:22.870Z,1012.8
2018-05-21T03:09:32.345Z,1012.78
2018-05-21T03:10:41.543Z,1012.81
2018-05-21T03:11:50.972Z,1012.77
2018-05-21T03:13:00.404Z,1012.78
2018-05-21T03:14:10.182Z,1012.73
2018-05-21T03:15:19.097Z,1012.73
2018-05-21T03:16:29.034Z,1012.78
2018-05-21T03:17:38.216Z,1012.79
2018-05-21T03:18:47.653Z,1012.76
2018-05-21T03:19:56.588Z,1012.78
2018-05-21T03:21:05.784Z,1012.74
2018-05-21T03:22:14.931Z,1012.72
2018-05-21T03:23:24.637Z,1012.73
2018-05-21T03:24:33.813Z,1012.71
2018-05-21T03:25:43.267Z,1012.7
2018-05-21T03:26:52.715Z,1012.69
2018-05-21T03:28:01.927Z,1012.71
2018-05-21T03:29:11.139Z,1012.7
2018-05-21T03:30:20.382Z,1012.66
2018-05-21T03:31:30.115Z,1012.65
2018-05-21T03:32:39.833Z,1012.67
2018-05-21T03:33:49.558Z,1012.64
2018-05-21T03:34:59.274Z,1012.68
2018-05-21T03:36:08.709Z,1012.65
2018-05-21T03:37:17.861Z,1012.64
2018-05-21T03:38:27.287Z,1012.63
2018-05-21T03:39:36.963Z,1012.65
2018-05-21T03:40:47.121Z,1012.64
2018-05-21T03:41:56.831Z,1012.62
2018-05-21T03:43:06.028Z,1012.64
2018-05-21T03:44:15.495Z,1012.64
2018-05-21T03:45:25.186Z,1012.66
2018-05-21T03:46:34.407Z,1012.62
2018-05-21T03:47:43.831Z,1012.63
2018-05-21T03:48:52.761Z,1012.67
2018-05-21T03:50:02.481Z,1012.63
2018-05-21T03:51:12.158Z,1012.68
2018-05-21T03:52:21.874Z,1012.69
2018-05-21T03:53:31.033Z,1012.68
2018-05-21T03:54:40.726Z,1012.69
2018-05-21T03:55:50.169Z,1012.69
2018-05-21T03:56:59.948Z,1012.67
2018-05-21T03:58:09.335Z,1012.67
2018-05-21T03:59:18.784Z,1012.68
2018-05-21T04:00:27.940Z,1012.65
2018-05-21T04:01:37.666Z,1012.64
2018-05-21T04:02:46.855Z,1012.65
2018-05-21T04:03:56.309Z,1012.64
2018-05-21T04:05:05.284Z,1012.63
2018-05-21T04:06:14.477Z,1012.59
2018-05-21T04:07:23.676Z,1012.6
2018-05-21T04:08:32.853Z,1012.62
2018-05-21T04:09:42.312Z,1012.64
2018-05-21T04:10:50.974Z,1012.59
2018-05-21T04:12:00.693Z,1012.58
2018-05-21T04:13:10.174Z,1012.54
2018-05-21T04:14:19.979Z,1012.53
2018-05-21T04:15:29.686Z,1012.56
2018-05-21T04:16:38.863Z,1012.57
2018-05-21T04:17:47.783Z,1012.55
2018-05-21T04:18:56.982Z,1012.55
2018-05-21T04:20:06.658Z,1012.53
2018-05-21T04:21:16.332Z,1012.5
2018-05-21T04:22:26.012Z,1012.48
2018-05-21T04:23:35.717Z,1012.5
2018-05-21T04:24:44.884Z,1012.49
2018-05-21T04:25:54.858Z,1012.5
2018-05-21T04:27:04.007Z,1012.49
2018-05-21T04:28:13.458Z,1012.51
2018-05-21T04:29:23.417Z,1012.5
2018-05-21T04:30:32.657Z,1012.49
2018-05-21T04:31:41.887Z,1012.48
2018-05-21T04:32:51.307Z,1012.49
2018-05-21T04:34:00.891Z,1012.48
2018-05-21T04:35:10.040Z,1012.45
2018-05-21T04:36:19.559Z,1012.45
2018-05-21T04:37:29.511Z,1012.44
2018-05-21T04:38:38.938Z,1012.45
2018-05-21T04:39:48.369Z,1012.48
2018-05-21T04:40:57.279Z,1012.46
2018-05-21T04:42:06.755Z,1012.49
2018-05-21T04:43:16.183Z,1012.46
2018-05-21T04:44:25.844Z,1012.41
2018-05-21T04:45:34.762Z,1012.4
2018-05-21T04:46:44.481Z,1012.4
2018-05-21T04:47:54.444Z,1012.39
2018-05-21T04:49:03.622Z,1012.38
2018-05-21T04:50:13.338Z,1012.37
2018-05-21T04:51:22.254Z,1012.4
2018-05-21T04:52:31.661Z,1012.39
2018-05-21T04:53:41.342Z,1012.4
2018-05-21T04:54:50.763Z,1012.41
2018-05-21T04:56:01.173Z,1012.42
2018-05-21T04:57:10.137Z,1012.41
2018-05-21T04:58:18.772Z,1012.41
2018-05-21T04:59:27.940Z,1012.37
2018-05-21T05:00:37.371Z,1012.4
2018-05-21T05:01:47.078Z,1012.37
2018-05-21T05:02:56.250Z,1012.36
2018-05-21T05:04:05.420Z,1012.39
2018-05-21T05:05:14.904Z,1012.41
2018-05-21T05:06:24.075Z,1012.39
2018-05-21T05:07:34.034Z,1012.4
2018-05-21T05:08:43.470Z,1012.39
2018-05-21T05:09:53.159Z,1012.34
2018-05-21T05:11:02.613Z,1012.34
2018-05-21T05:12:12.056Z,1012.29
2018-05-21T05:13:21.745Z,1012.31
2018-05-21T05:14:31.194Z,1012.33
2018-05-21T05:15:40.094Z,1012.31
2018-05-21T05:16:50.046Z,1012.3
2018-05-21T05:17:59.464Z,1012.29
2018-05-21T05:19:09.164Z,1012.26
2018-05-21T05:20:18.874Z,1012.28
2018-05-21T05:21:28.063Z,1012.25
2018-05-21T05:22:37.261Z,1012.24
2018-05-21T05:23:46.998Z,1012.25
2018-05-21T05:24:56.690Z,1012.22
2018-05-21T05:26:06.390Z,1012.25
2018-05-21T05:27:16.100Z,1012.21
2018-05-21T05:28:25.856Z,1012.19
2018-05-21T05:29:35.040Z,1012.19
2018-05-21T05:30:44.464Z,1012.19
2018-05-21T05:31:53.907Z,1012.21
2018-05-21T05:33:02.837Z,1012.17
2018-05-21T05:34:12.297Z,1012.19
2018-05-21T05:35:22.243Z,1012.19
2018-05-21T05:36:31.409Z,1012.16
2018-05-21T05:37:40.845Z,1012.19
2018-05-21T05:38:50.724Z,1012.14
2018-05-21T05:39:59.354Z,1012.18
2018-05-21T05:41:08.506Z,1012.17
2018-05-21T05:42:18.209Z,1012.15
2018-05-21T05:43:27.131Z,1012.13
2018-05-21T05:44:36.824Z,1012.15
2018-05-21T05:45:45.785Z,1012.17
2018-05-21T05:46:55.573Z,1012.13
2018-05-21T05:48:04.827Z,1012.1
2018-05-21T05:49:14.267Z,1012.09
2018-05-21T05:50:23.942Z,1012.05
2018-05-21T05:51:33.656Z,1012.08
2018-05-21T05:52:42.815Z,1012.04
2018-05-21T05:53:52.756Z,1012.03
2018-05-21T05:55:02.216Z,1012.01
2018-05-21T05:56:11.672Z,1012.06
2018-05-21T05:57:21.100Z,1012.06
2018-05-21T05:58:30.034Z,1012.05
2018-05-21T05:59:39.529Z,1012.04
2018-05-21T06:00:48.673Z,1011.98
2018-05-21T06:01:58.621Z,1011.98
2018-05-21T06:03:08.344Z,1011.96
2018-05-21T06:04:17.519Z,1011.98
2018-05-21T06:05:26.948Z,1012
2018-05-21T06:06:36.644Z,1012
2018-05-21T06:07:46.323Z,1012.03
2018-05-21T06:08:56.323Z,1012.01
2018-05-21T06:10:06.016Z,1012.01
2018-05-21T06:11:15.778Z,1012.01
2018-05-21T06:12:25.237Z,1011.97
2018-05-21T06:13:34.420Z,1011.98
2018-05-21T06:14:43.622Z,1011.99
2018-05-21T06:15:53.051Z,1012.02
2018-05-21T06:17:02.042Z,1012.04
2018-05-21T06:18:11.487Z,1011.94
2018-05-21T06:19:21.230Z,1011.97
2018-05-21T06:20:30.768Z,1012.02
2018-05-21T06:21:39.710Z,1012
2018-05-21T06:22:49.141Z,1011.98
2018-05-21T06:23:58.114Z,1011.98
2018-05-21T06:25:07.048Z,1011.97
2018-05-21T06:26:16.471Z,1011.98
2018-05-21T06:27:25.381Z,1011.99
2018-05-21T06:28:35.052Z,1011.96
2018-05-21T06:29:43.952Z,1011.95
2018-05-21T06:30:53.137Z,1011.92
2018-05-21T06:32:02.054Z,1011.95
2018-05-21T06:33:11.257Z,1011.93
2018-05-21T06:34:20.506Z,1011.94
2018-05-21T06:35:30.024Z,1011.92
2018-05-21T06:36:39.222Z,1011.89
2018-05-21T06:37:48.672Z,1011.89
2018-05-21T06:38:57.865Z,1011.88
2018-05-21T06:40:07.372Z,1011.92
2018-05-21T06:41:17.088Z,1011.9
2018-05-21T06:42:26.755Z,1011.91
2018-05-21T06:43:35.689Z,1011.89
2018-05-21T06:44:45.452Z,1011.9
2018-05-21T06:45:54.900Z,1011.91
2018-05-21T06:47:04.364Z,1011.88
2018-05-21T06:48:13.566Z,1011.91
2018-05-21T06:49:23.023Z,1011.9
2018-05-21T06:50:32.509Z,1011.88
2018-05-21T06:51:41.936Z,1011.88
2018-05-21T06:52:50.875Z,1011.88
2018-05-21T06:54:00.565Z,1011.87
2018-05-21T06:55:09.734Z,1011.91
2018-05-21T06:56:19.750Z,1011.9
2018-05-21T06:57:29.731Z,1011.84
2018-05-21T06:58:39.163Z,1011.89
2018-05-21T06:59:48.354Z,1011.88
2018-05-21T07:00:57.966Z,1011.85
2018-05-21T07:02:06.930Z,1011.86
2018-05-21T07:03:16.120Z,1011.92
2018-05-21T07:04:25.893Z,1011.89
2018-05-21T07:05:35.636Z,1011.84
2018-05-21T07:06:45.869Z,1011.87
2018-05-21T07:07:55.713Z,1011.83
2018-05-21T07:09:05.319Z,1011.81
2018-05-21T07:10:14.530Z,1011.81
2018-05-21T07:11:23.948Z,1011.78
2018-05-21T07:12:33.430Z,1011.78
2018-05-21T07:13:43.382Z,1011.78
2018-05-21T07:14:52.568Z,1011.8
2018-05-21T07:16:02.558Z,1011.8
2018-05-21T07:17:12.497Z,1011.78
2018-05-21T07:18:22.202Z,1011.8
2018-05-21T07:19:32.131Z,1011.76
2018-05-21T07:20:42.122Z,1011.81
2018-05-21T07:21:51.814Z,1011.78
2018-05-21T07:23:01.530Z,1011.77
2018-05-21T07:24:11.416Z,1011.78
2018-05-21T07:25:20.900Z,1011.75
2018-05-21T07:26:30.621Z,1011.74
2018-05-21T07:27:39.921Z,1011.72
2018-05-21T07:28:49.610Z,1011.73
2018-05-21T07:29:59.278Z,1011.73
2018-05-21T07:31:08.977Z,1011.71
2018-05-21T07:32:18.648Z,1011.68
2018-05-21T07:33:27.834Z,1011.67
2018-05-21T07:34:37.316Z,1011.69
2018-05-21T07:35:46.473Z,1011.64
2018-05-21T07:36:56.175Z,1011.63
2018-05-21T07:38:05.625Z,1011.64
2018-05-21T07:39:14.542Z,1011.64
2018-05-21T07:40:23.462Z,1011.65
2018-05-21T07:41:32.392Z,1011.62
2018-05-21T07:42:41.575Z,1011.59
2018-05-21T07:43:51.249Z,1011.57
2018-05-21T07:45:00.171Z,1011.57
2018-05-21T07:46:09.334Z,1011.63
2018-05-21T07:47:18.262Z,1011.55
2018-05-21T07:48:27.447Z,1011.53
2018-05-21T07:49:37.162Z,1011.58
2018-05-21T07:50:46.831Z,1011.56
2018-05-21T07:51:56.282Z,1011.59
2018-05-21T07:53:05.493Z,1011.56
2018-05-21T07:54:14.958Z,1011.53
2018-05-21T07:55:24.519Z,1011.54
2018-05-21T07:56:33.859Z,1011.49
2018-05-21T07:57:43.297Z,1011.48
2018-05-21T07:58:53.273Z,1011.47
2018-05-21T08:00:02.719Z,1011.49
2018-05-21T08:01:12.684Z,1011.43
2018-05-21T08:02:21.885Z,1011.43
2018-05-21T08:03:30.805Z,1011.48
2018-05-21T08:04:39.999Z,1011.39
2018-05-21T08:05:48.983Z,1011.38
2018-05-21T08:06:58.718Z,1011.35
2018-05-21T08:08:08.414Z,1011.35
2018-05-21T08:09:17.932Z,1011.32
2018-05-21T08:10:27.454Z,1011.35
2018-05-21T08:11:36.732Z,1011.27
2018-05-21T08:12:46.698Z,1011.31
2018-05-21T08:13:57.082Z,1011.33
2018-05-21T08:15:06.180Z,1011.24
2018-05-21T08:16:15.211Z,1011.25
2018-05-21T08:17:24.503Z,1011.27
2018-05-21T08:18:34.252Z,1011.21
2018-05-21T08:19:43.988Z,1011.27
2018-05-21T08:20:53.448Z,1011.22
2018-05-21T08:22:02.408Z,1011.24
2018-05-21T08:23:12.048Z,1011.2
2018-05-21T08:24:21.745Z,1011.18
2018-05-21T08:25:31.188Z,1011.19
2018-05-21T08:26:40.734Z,1011.17
2018-05-21T08:27:50.458Z,1011.23
2018-05-21T08:28:59.940Z,1011.18
2018-05-21T08:30:09.444Z,1011.17
2018-05-21T08:31:19.315Z,1011.17
2018-05-21T08:32:29.045Z,1011.11
2018-05-21T08:33:38.756Z,1011.12
2018-05-21T08:34:48.009Z,1011.15
2018-05-21T08:35:57.195Z,1011.09
2018-05-21T08:37:06.368Z,1011.08
2018-05-21T08:38:15.825Z,1011.07
2018-05-21T08:39:25.052Z,1011.13
2018-05-21T08:40:34.234Z,1011.17
2018-05-21T08:41:43.442Z,1011.11
2018-05-21T08:42:53.181Z,1011.04
2018-05-21T08:44:02.623Z,1011.04
2018-05-21T08:45:12.342Z,1011.03
2018-05-21T08:46:21.783Z,1011.07
2018-05-21T08:47:30.736Z,1011.08
2018-05-21T08:48:40.845Z,1011.04
2018-05-21T08:49:52.922Z,1011.03
2018-05-21T08:51:02.381Z,1011.01
2018-05-21T08:52:12.184Z,1011.04
2018-05-21T08:53:22.027Z,1011.05
2018-05-21T08:54:31.278Z,1011.09
2018-05-21T08:55:40.748Z,1011.05
2018-05-21T08:56:49.922Z,1011
2018-05-21T08:57:58.857Z,1010.98
2018-05-21T08:59:08.060Z,1010.94
2018-05-21T09:00:17.728Z,1011.02
2018-05-21T09:01:27.582Z,1011.01
2018-05-21T09:02:36.523Z,1010.99
2018-05-21T09:03:45.956Z,1010.95
2018-05-21T09:04:55.713Z,1010.89
2018-05-21T09:06:04.884Z,1010.96
2018-05-21T09:07:14.572Z,1010.91
2018-05-21T09:08:24.021Z,1010.93
2018-05-21T09:09:33.950Z,1010.86
2018-05-21T09:10:43.158Z,1010.86
2018-05-21T09:11:52.592Z,1010.81
2018-05-21T09:13:02.293Z,1010.81
2018-05-21T09:14:12.011Z,1010.76
2018-05-21T09:15:21.434Z,1010.76
2018-05-21T09:16:31.177Z,1010.8
2018-05-21T09:17:41.171Z,1010.77
2018-05-21T09:18:50.852Z,1010.77
2018-05-21T09:20:00.560Z,1010.72
2018-05-21T09:21:10.434Z,1010.81
2018-05-21T09:22:19.592Z,1010.69
2018-05-21T09:23:29.041Z,1010.67
2018-05-21T09:24:38.724Z,1010.72
2018-05-21T09:25:48.168Z,1010.73
2018-05-21T09:26:57.655Z,1010.67
2018-05-21T09:28:06.837Z,1010.66
2018-05-21T09:29:16.304Z,1010.7
2018-05-21T09:30:25.506Z,1010.71
2018-05-21T09:31:34.963Z,1010.65
2018-05-21T09:32:44.921Z,1010.61
2018-05-21T09:33:54.391Z,1010.57
2018-05-21T09:35:04.417Z,1010.55
2018-05-21T09:36:13.637Z,1010.64
2018-05-21T09:37:22.695Z,1010.57
2018-05-21T09:38:31.866Z,1010.61
2018-05-21T09:39:41.337Z,1010.67
2018-05-21T09:40:50.894Z,1010.65
2018-05-21T09:41:59.893Z,1010.55
2018-05-21T09:43:09.981Z,1010.55
2018-05-21T09:44:18.871Z,1010.57
2018-05-21T09:45:28.048Z,1010.53
2018-05-21T09:46:37.501Z,1010.51
2018-05-21T09:47:46.931Z,1010.54
2018-05-21T09:48:56.691Z,1010.54
2018-05-21T09:50:05.859Z,1010.48
2018-05-21T09:51:15.549Z,1010.44
2018-05-21T09:52:24.986Z,1010.47
2018-05-21T09:53:34.157Z,1010.5
2018-05-21T09:54:43.598Z,1010.52
2018-05-21T09:55:53.022Z,1010.56
2018-05-21T09:57:02.457Z,1010.42
2018-05-21T09:58:11.369Z,1010.4
2018-05-21T09:59:20.530Z,1010.41
2018-05-21T10:00:29.699Z,1010.39
2018-05-21T10:01:39.399Z,1010.35
2018-05-21T10:02:49.086Z,1010.46
2018-05-21T10:03:58.535Z,1010.35
2018-05-21T10:05:07.956Z,1010.32
2018-05-21T10:06:17.149Z,1010.35
2018-05-21T10:07:26.844Z,1010.32
2018-05-21T10:08:36.034Z,1010.3
2018-05-21T10:09:45.223Z,1010.25
2018-05-21T10:10:54.682Z,1010.26
2018-05-21T10:12:04.665Z,1010.24
2018-05-21T10:13:15.824Z,1010.24
2018-05-21T10:14:25.941Z,1010.22
2018-05-21T10:15:36.253Z,1010.23
2018-05-21T10:16:46.337Z,1010.28
2018-05-21T10:17:56.978Z,1010.21
2018-05-21T10:19:07.536Z,1010.16
2018-05-21T10:20:16.979Z,1010.19
2018-05-21T10:21:26.176Z,1010.2
2018-05-21T10:22:35.912Z,1010.15
2018-05-21T10:23:44.603Z,1010.19
2018-05-21T10:24:53.819Z,1010.23
2018-05-21T10:26:03.538Z,1010.29
2018-05-21T10:27:13.700Z,1010.15
2018-05-21T10:28:22.927Z,1010.13
2018-05-21T10:29:32.379Z,1010.13
2018-05-21T10:30:41.805Z,1010.16
2018-05-21T10:31:50.973Z,1009.99
2018-05-21T10:33:00.939Z,1009.99
2018-05-21T10:34:10.703Z,1010.03
2018-05-21T10:35:20.130Z,1010.14
2018-05-21T10:36:29.886Z,1010.06
2018-05-21T10:37:39.371Z,1010.06
2018-05-21T10:38:48.809Z,1010.04
2018-05-21T10:39:58.019Z,1010.01
2018-05-21T10:41:07.966Z,1010.07
2018-05-21T10:42:18.375Z,1010.05
2018-05-21T10:43:27.558Z,1009.98
2018-05-21T10:44:36.619Z,1010.04
2018-05-21T10:45:46.029Z,1010.05
2018-05-21T10:46:55.249Z,1009.99
2018-05-21T10:48:04.469Z,1009.95
2018-05-21T10:49:14.001Z,1009.9
2018-05-21T10:50:23.270Z,1009.97
2018-05-21T10:51:32.838Z,1009.94
2018-05-21T10:52:42.285Z,1009.86
2018-05-21T10:53:51.993Z,1009.89
2018-05-21T10:55:01.015Z,1010.08
2018-05-21T10:56:10.502Z,1010.04
2018-05-21T10:57:20.864Z,1010.01
2018-05-21T10:58:30.902Z,1009.84
2018-05-21T10:59:40.362Z,1009.84
2018-05-21T11:00:50.302Z,1009.83
2018-05-21T11:01:59.775Z,1009.87
2018-05-21T11:03:09.741Z,1009.94
2018-05-21T11:04:19.168Z,1009.81
2018-05-21T11:05:28.874Z,1009.9
2018-05-21T11:06:38.314Z,1009.84
2018-05-21T11:07:47.529Z,1009.89
2018-05-21T11:08:56.962Z,1009.75
2018-05-21T11:10:06.414Z,1009.73
2018-05-21T11:11:15.588Z,1009.66
2018-05-21T11:12:25.322Z,1009.72
2018-05-21T11:13:35.105Z,1009.71
2018-05-21T11:14:45.043Z,1009.72
2018-05-21T11:15:54.510Z,1009.73
2018-05-21T11:17:04.210Z,1009.77
2018-05-21T11:18:13.689Z,1009.6
2018-05-21T11:19:23.116Z,1009.75
2018-05-21T11:20:32.841Z,1009.65
2018-05-21T11:21:42.524Z,1009.66
2018-05-21T11:22:52.219Z,1009.69
2018-05-21T11:24:01.702Z,1009.61
2018-05-21T11:25:11.406Z,1009.59
2018-05-21T11:26:20.863Z,1009.59
2018-05-21T11:27:30.317Z,1009.58
2018-05-21T11:28:39.734Z,1009.52
2018-05-21T11:29:49.160Z,1009.56
2018-05-21T11:30:58.603Z,1009.63
2018-05-21T11:32:08.028Z,1009.49
2018-05-21T11:33:17.710Z,1009.46
2018-05-21T11:34:27.219Z,1009.39
2018-05-21T11:35:37.158Z,1009.34
2018-05-21T11:36:46.841Z,1009.27
2018-05-21T11:37:55.998Z,1009.32
2018-05-21T11:39:05.940Z,1009.33
2018-05-21T11:40:15.378Z,1009.35
2018-05-21T11:41:25.107Z,1009.35
2018-05-21T11:42:34.789Z,1009.34
2018-05-21T11:43:44.001Z,1009.44
2018-05-21T11:44:53.189Z,1009.37
2018-05-21T11:46:02.119Z,1009.29
2018-05-21T11:47:11.358Z,1009.25
2018-05-21T11:48:21.349Z,1009.19
2018-05-21T11:49:31.060Z,1009.21
2018-05-21T11:50:40.561Z,1009.09
2018-05-21T11:51:50.552Z,1009.14
2018-05-21T11:53:00.003Z,1009.13
2018-05-21T11:54:09.434Z,1009.13
2018-05-21T11:55:18.612Z,1009.14
2018-05-21T11:56:27.834Z,1009.13
2018-05-21T11:57:37.820Z,1009.13
2018-05-21T11:58:47.276Z,1009.11
2018-05-21T11:59:56.469Z,1009.03
2018-05-21T12:01:06.045Z,1009.07
2018-05-21T12:02:15.489Z,1008.97
2018-05-21T12:03:24.714Z,1009.08
2018-05-21T12:04:34.437Z,1009.08
2018-05-21T12:05:43.643Z,1009.04
2018-05-21T12:06:52.881Z,1008.92
2018-05-21T12:08:01.829Z,1008.97
2018-05-21T12:09:11.561Z,1009.16
2018-05-21T12:10:21.039Z,1008.99
2018-05-21T12:11:29.969Z,1009.03
2018-05-21T12:12:39.884Z,1009.08
2018-05-21T12:13:49.699Z,1009.1
2018-05-21T12:14:59.132Z,1009.07
2018-05-21T12:16:08.355Z,1009.09
2018-05-21T12:17:17.356Z,1009.02
2018-05-21T12:18:26.820Z,1008.95
2018-05-21T12:19:36.504Z,1008.96
2018-05-21T12:20:46.064Z,1008.92
2018-05-21T12:21:55.777Z,1009.09
2018-05-21T12:23:04.970Z,1008.89
2018-05-21T12:24:14.807Z,1009
2018-05-21T12:25:24.563Z,1008.89
2018-05-21T12:26:34.006Z,1008.85
2018-05-21T12:27:43.481Z,1008.9
2018-05-21T12:28:52.659Z,1008.92
2018-05-21T12:30:01.852Z,1008.87
2018-05-21T12:31:11.570Z,1008.84
2018-05-21T12:32:21.016Z,1008.88
2018-05-21T12:33:30.192Z,1008.88
2018-05-21T12:34:39.137Z,1008.87
2018-05-21T12:35:48.424Z,1008.87
2018-05-21T12:36:57.668Z,1008.84
2018-05-21T12:38:06.724Z,1008.83
2018-05-21T12:39:17.129Z,1008.8
2018-05-21T12:40:26.566Z,1008.86
2018-05-21T12:41:36.026Z,1008.89
2018-05-21T12:42:45.728Z,1008.85
2018-05-21T12:43:54.921Z,1008.78
2018-05-21T12:45:04.172Z,1008.88
2018-05-21T12:46:14.135Z,1008.82
2018-05-21T12:47:23.325Z,1008.85
2018-05-21T12:48:32.260Z,1008.89
2018-05-21T12:49:41.503Z,1008.87
2018-05-21T12:50:51.206Z,1008.8
2018-05-21T12:52:00.378Z,1008.82
2018-05-21T12:53:09.808Z,1008.77
2018-05-21T12:54:18.511Z,1008.76
2018-05-21T12:55:27.755Z,1008.75
2018-05-21T12:56:37.200Z,1008.78
2018-05-21T12:57:46.420Z,1008.8
2018-05-21T12:58:55.905Z,1008.78
2018-05-21T13:00:05.078Z,1008.78
2018-05-21T13:01:13.755Z,1008.8
2018-05-21T13:02:23.445Z,1008.82
2018-05-21T13:03:32.614Z,1008.84
2018-05-21T13:04:41.838Z,1008.78
2018-05-21T13:05:50.765Z,1008.82
2018-05-21T13:07:00.511Z,1008.81
2018-05-21T13:08:09.692Z,1008.93
2018-05-21T13:09:19.174Z,1008.77
2018-05-21T13:10:28.371Z,1008.78
2018-05-21T13:11:37.582Z,1008.79
2018-05-21T13:12:47.062Z,1008.82
2018-05-21T13:13:56.250Z,1008.76
2018-05-21T13:15:05.735Z,1008.77
2018-05-21T13:16:15.316Z,1008.69
2018-05-21T13:17:24.761Z,1008.68
2018-05-21T13:18:34.034Z,1008.65
2018-05-21T13:19:43.206Z,1008.68
2018-05-21T13:20:53.198Z,1008.6
2018-05-21T13:22:02.743Z,1008.58
2018-05-21T13:23:12.609Z,1008.6
2018-05-21T13:24:22.102Z,1008.6
2018-05-21T13:25:31.894Z,1008.58
2018-05-21T13:26:41.340Z,1008.57
2018-05-21T13:27:50.792Z,1008.58
2018-05-21T13:28:59.969Z,1008.61
2018-05-21T13:30:09.516Z,1008.58
2018-05-21T13:31:19.000Z,1008.62
2018-05-21T13:32:28.451Z,1008.65
2018-05-21T13:33:37.666Z,1008.6
2018-05-21T13:34:47.377Z,1008.58
2018-05-21T13:35:56.825Z,1008.62
2018-05-21T13:37:06.253Z,1008.6
2018-05-21T13:38:15.458Z,1008.55
2018-05-21T13:39:24.633Z,1008.57
2018-05-21T13:40:33.566Z,1008.47
2018-05-21T13:41:43.589Z,1008.51
2018-05-21T13:42:52.771Z,1008.48
2018-05-21T13:44:02.753Z,1008.43
2018-05-21T13:45:12.710Z,1008.46
2018-05-21T13:46:22.461Z,1008.41
2018-05-21T13:47:32.163Z,1008.48
2018-05-21T13:48:42.108Z,1008.43
2018-05-21T13:49:51.575Z,1008.37
2018-05-21T13:51:01.047Z,1008.36
2018-05-21T13:52:10.776Z,1008.29
2018-05-21T13:53:20.473Z,1008.36
2018-05-21T13:54:30.164Z,1008.36
2018-05-21T13:55:39.633Z,1008.17
2018-05-21T13:56:49.090Z,1008.3
2018-05-21T13:57:58.269Z,1008.31
2018-05-21T13:59:07.458Z,1008.31
2018-05-21T14:00:16.350Z,1008.28
2018-05-21T14:01:25.799Z,1008.31
2018-05-21T14:02:35.012Z,1008.39
2018-05-21T14:03:43.966Z,1008.42